sensor_id;sensor_type;location;lat;lon;timestamp;temperature;humidity
51637;DHT22;37713;53.254;6.460;2022-08-14T00:00:19;20.50;99.90
51637;DHT22;37713;53.254;6.460;2022-08-14T00:02:46;20.50;99.90
51637;DHT22;37713;53.254;6.460;2022-08-14T00:05:15;20.40;99.90
51637;DHT22;37713;53.254;6.460;2022-08-14T00:07:41;20.40;99.90
51637;DHT22;37713;53.254;6.460;2022-08-14T00:10:11;20.40;99.90
51637;DHT22;37713;53.254;6.460;2022-08-14T00:12:39;20.30;99.90
51637;DHT22;37713;53.254;6.460;2022-08-14T00:15:19;20.30;99.90
51637;DHT22;37713;53.254;6.460;2022-08-14T00:17:45;20.30;99.90
51637;DHT22;37713;53.254;6.460;2022-08-14T00:20:11;20.30;99.90
51637;DHT22;37713;53.254;6.460;2022-08-14T00:22:38;20.20;99.90
51637;DHT22;37713;53.254;6.460;2022-08-14T00:25:05;20.20;99.90
51637;DHT22;37713;53.254;6.460;2022-08-14T00:27:31;20.20;99.90
51637;DHT22;37713;53.254;6.460;2022-08-14T00:29:57;20.10;99.90
51637;DHT22;37713;53.254;6.460;2022-08-14T00:32:22;20.10;99.90
51637;DHT22;37713;53.254;6.460;2022-08-14T00:34:48;20.10;99.90
51637;DHT22;37713;53.254;6.460;2022-08-14T00:37:14;20.10;99.90
51637;DHT22;37713;53.254;6.460;2022-08-14T00:39:40;20.10;99.90
51637;DHT22;37713;53.254;6.460;2022-08-14T00:42:05;20.10;99.90
51637;DHT22;37713;53.254;6.460;2022-08-14T00:44:32;20.00;99.90
51637;DHT22;37713;53.254;6.460;2022-08-14T00:46:58;20.00;99.90
51637;DHT22;37713;53.254;6.460;2022-08-14T00:49:24;20.00;99.90
51637;DHT22;37713;53.254;6.460;2022-08-14T00:51:50;20.00;99.90
51637;DHT22;37713;53.254;6.460;2022-08-14T00:54:16;19.90;99.90
51637;DHT22;37713;53.254;6.460;2022-08-14T00:56:44;19.90;99.90
51637;DHT22;37713;53.254;6.460;2022-08-14T00:59:10;19.70;99.90
51637;DHT22;37713;53.254;6.460;2022-08-14T01:01:37;19.80;99.90
51637;DHT22;37713;53.254;6.460;2022-08-14T01:04:03;19.80;99.90
51637;DHT22;37713;53.254;6.460;2022-08-14T01:06:30;19.80;99.90
51637;DHT22;37713;53.254;6.460;2022-08-14T01:08:59;19.80;99.90
51637;DHT22;37713;53.254;6.460;2022-08-14T01:11:25;19.70;99.90
51637;DHT22;37713;53.254;6.460;2022-08-14T01:13:51;19.70;99.90
51637;DHT22;37713;53.254;6.460;2022-08-14T01:16:18;19.70;99.90
51637;DHT22;37713;53.254;6.460;2022-08-14T01:18:45;19.70;99.90
51637;DHT22;37713;53.254;6.460;2022-08-14T01:21:31;19.70;99.90
51637;DHT22;37713;53.254;6.460;2022-08-14T01:23:58;19.60;99.90
51637;DHT22;37713;53.254;6.460;2022-08-14T01:26:25;19.60;99.90
51637;DHT22;37713;53.254;6.460;2022-08-14T01:28:52;19.60;99.90
51637;DHT22;37713;53.254;6.460;2022-08-14T01:31:24;19.60;99.90
51637;DHT22;37713;53.254;6.460;2022-08-14T01:33:53;19.60;99.90
51637;DHT22;37713;53.254;6.460;2022-08-14T01:36:20;19.60;99.90
51637;DHT22;37713;53.254;6.460;2022-08-14T01:38:47;19.50;99.90
51637;DHT22;37713;53.254;6.460;2022-08-14T01:41:20;19.50;99.90
51637;DHT22;37713;53.254;6.460;2022-08-14T01:43:55;19.50;99.90
51637;DHT22;37713;53.254;6.460;2022-08-14T01:46:30;19.50;99.90
51637;DHT22;37713;53.254;6.460;2022-08-14T01:48:57;19.40;99.90
51637;DHT22;37713;53.254;6.460;2022-08-14T01:51:25;19.40;99.90
51637;DHT22;37713;53.254;6.460;2022-08-14T01:53:58;19.40;99.90
51637;DHT22;37713;53.254;6.460;2022-08-14T01:56:31;19.40;99.90
51637;DHT22;37713;53.254;6.460;2022-08-14T01:59:20;19.40;99.90
51637;DHT22;37713;53.254;6.460;2022-08-14T02:01:51;19.30;99.90
51637;DHT22;37713;53.254;6.460;2022-08-14T02:04:19;19.30;99.90
51637;DHT22;37713;53.254;6.460;2022-08-14T02:06:46;19.30;99.90
51637;DHT22;37713;53.254;6.460;2022-08-14T02:09:12;19.30;99.90
51637;DHT22;37713;53.254;6.460;2022-08-14T02:11:38;19.20;99.90
51637;DHT22;37713;53.254;6.460;2022-08-14T02:14:07;19.20;99.90
51637;DHT22;37713;53.254;6.460;2022-08-14T02:16:42;19.20;99.90
51637;DHT22;37713;53.254;6.460;2022-08-14T02:19:10;19.20;99.90
51637;DHT22;37713;53.254;6.460;2022-08-14T02:21:40;19.20;99.90
51637;DHT22;37713;53.254;6.460;2022-08-14T02:24:06;19.20;99.90
51637;DHT22;37713;53.254;6.460;2022-08-14T02:26:37;19.10;99.90
51637;DHT22;37713;53.254;6.460;2022-08-14T02:29:11;19.10;99.90
51637;DHT22;37713;53.254;6.460;2022-08-14T02:31:40;19.10;99.90
51637;DHT22;37713;53.254;6.460;2022-08-14T02:34:10;19.10;99.90
51637;DHT22;37713;53.254;6.460;2022-08-14T02:36:37;19.10;99.90
51637;DHT22;37713;53.254;6.460;2022-08-14T02:39:08;19.10;99.90
51637;DHT22;37713;53.254;6.460;2022-08-14T02:41:34;19.10;99.90
51637;DHT22;37713;53.254;6.460;2022-08-14T02:44:05;19.00;99.90
51637;DHT22;37713;53.254;6.460;2022-08-14T02:46:32;19.00;99.90
51637;DHT22;37713;53.254;6.460;2022-08-14T02:48:58;19.00;99.90
51637;DHT22;37713;53.254;6.460;2022-08-14T02:51:26;19.00;99.90
51637;DHT22;37713;53.254;6.460;2022-08-14T02:53:54;19.00;99.90
51637;DHT22;37713;53.254;6.460;2022-08-14T02:56:19;19.00;99.90
51637;DHT22;37713;53.254;6.460;2022-08-14T02:58:48;18.90;99.90
51637;DHT22;37713;53.254;6.460;2022-08-14T03:01:16;18.90;99.90
51637;DHT22;37713;53.254;6.460;2022-08-14T03:03:44;18.90;99.90
51637;DHT22;37713;53.254;6.460;2022-08-14T03:06:10;19.00;99.90
51637;DHT22;37713;53.254;6.460;2022-08-14T03:08:37;18.90;99.90
51637;DHT22;37713;53.254;6.460;2022-08-14T03:11:06;18.90;99.90
51637;DHT22;37713;53.254;6.460;2022-08-14T03:13:35;18.90;99.90
51637;DHT22;37713;53.254;6.460;2022-08-14T03:16:02;18.90;99.90
51637;DHT22;37713;53.254;6.460;2022-08-14T03:18:29;18.90;99.90
51637;DHT22;37713;53.254;6.460;2022-08-14T03:20:55;18.90;99.90
51637;DHT22;37713;53.254;6.460;2022-08-14T03:23:21;18.90;99.90
51637;DHT22;37713;53.254;6.460;2022-08-14T03:25:46;18.90;99.90
51637;DHT22;37713;53.254;6.460;2022-08-14T03:28:13;18.90;99.90
51637;DHT22;37713;53.254;6.460;2022-08-14T03:30:39;18.80;99.90
51637;DHT22;37713;53.254;6.460;2022-08-14T03:33:06;18.80;99.90
51637;DHT22;37713;53.254;6.460;2022-08-14T03:35:32;18.80;99.90
51637;DHT22;37713;53.254;6.460;2022-08-14T03:38:10;18.80;99.90
51637;DHT22;37713;53.254;6.460;2022-08-14T03:40:38;18.80;99.90
51637;DHT22;37713;53.254;6.460;2022-08-14T03:43:06;18.80;99.90
51637;DHT22;37713;53.254;6.460;2022-08-14T03:45:37;18.80;99.90
51637;DHT22;37713;53.254;6.460;2022-08-14T03:48:09;18.70;99.90
51637;DHT22;37713;53.254;6.460;2022-08-14T03:50:41;18.70;99.90
51637;DHT22;37713;53.254;6.460;2022-08-14T03:53:09;18.70;99.90
51637;DHT22;37713;53.254;6.460;2022-08-14T03:55:36;18.70;99.90
51637;DHT22;37713;53.254;6.460;2022-08-14T03:58:05;18.70;99.90
51637;DHT22;37713;53.254;6.460;2022-08-14T04:00:32;18.70;99.90
51637;DHT22;37713;53.254;6.460;2022-08-14T04:02:58;18.70;99.90
51637;DHT22;37713;53.254;6.460;2022-08-14T04:05:23;18.60;99.90
51637;DHT22;37713;53.254;6.460;2022-08-14T04:07:49;18.60;99.90
51637;DHT22;37713;53.254;6.460;2022-08-14T04:10:15;18.60;99.90
51637;DHT22;37713;53.254;6.460;2022-08-14T04:12:41;18.60;99.90
51637;DHT22;37713;53.254;6.460;2022-08-14T04:15:08;18.60;99.90
51637;DHT22;37713;53.254;6.460;2022-08-14T04:17:35;18.60;99.90
51637;DHT22;37713;53.254;6.460;2022-08-14T04:20:01;18.60;99.90
51637;DHT22;37713;53.254;6.460;2022-08-14T04:22:32;18.60;99.90
51637;DHT22;37713;53.254;6.460;2022-08-14T04:24:59;18.60;99.90
51637;DHT22;37713;53.254;6.460;2022-08-14T04:27:26;18.60;99.90
51637;DHT22;37713;53.254;6.460;2022-08-14T04:29:52;18.60;99.90
51637;DHT22;37713;53.254;6.460;2022-08-14T04:32:19;18.60;99.90
51637;DHT22;37713;53.254;6.460;2022-08-14T04:34:48;18.60;99.90
51637;DHT22;37713;53.254;6.460;2022-08-14T04:37:13;18.60;99.90
51637;DHT22;37713;53.254;6.460;2022-08-14T04:39:58;18.60;99.90
51637;DHT22;37713;53.254;6.460;2022-08-14T04:42:42;18.60;99.90
51637;DHT22;37713;53.254;6.460;2022-08-14T04:45:27;18.60;99.90
51637;DHT22;37713;53.254;6.460;2022-08-14T04:48:05;18.60;99.90
51637;DHT22;37713;53.254;6.460;2022-08-14T04:50:46;18.60;99.90
51637;DHT22;37713;53.254;6.460;2022-08-14T04:53:24;18.60;99.90
51637;DHT22;37713;53.254;6.460;2022-08-14T04:55:50;18.60;99.90
51637;DHT22;37713;53.254;6.460;2022-08-14T04:58:22;18.60;99.90
51637;DHT22;37713;53.254;6.460;2022-08-14T05:00:49;18.60;99.90
51637;DHT22;37713;53.254;6.460;2022-08-14T05:03:19;18.60;99.90
51637;DHT22;37713;53.254;6.460;2022-08-14T05:05:50;18.60;99.90
51637;DHT22;37713;53.254;6.460;2022-08-14T05:08:17;18.60;99.90
51637;DHT22;37713;53.254;6.460;2022-08-14T05:10:48;18.70;99.90
51637;DHT22;37713;53.254;6.460;2022-08-14T05:13:18;18.70;99.90
51637;DHT22;37713;53.254;6.460;2022-08-14T05:15:44;18.80;99.90
51637;DHT22;37713;53.254;6.460;2022-08-14T05:18:16;18.80;99.90
51637;DHT22;37713;53.254;6.460;2022-08-14T05:20:44;18.80;99.90
51637;DHT22;37713;53.254;6.460;2022-08-14T05:23:16;18.90;99.90
51637;DHT22;37713;53.254;6.460;2022-08-14T05:25:43;18.90;99.90
51637;DHT22;37713;53.254;6.460;2022-08-14T05:28:16;18.90;99.90
51637;DHT22;37713;53.254;6.460;2022-08-14T05:30:47;19.00;99.90
51637;DHT22;37713;53.254;6.460;2022-08-14T05:33:14;19.10;99.90
51637;DHT22;37713;53.254;6.460;2022-08-14T05:35:41;19.10;99.90
51637;DHT22;37713;53.254;6.460;2022-08-14T05:38:09;19.20;99.90
51637;DHT22;37713;53.254;6.460;2022-08-14T05:40:36;19.20;99.90
51637;DHT22;37713;53.254;6.460;2022-08-14T05:43:02;19.30;99.90
51637;DHT22;37713;53.254;6.460;2022-08-14T05:45:28;19.40;99.90
51637;DHT22;37713;53.254;6.460;2022-08-14T05:47:54;19.50;99.90
51637;DHT22;37713;53.254;6.460;2022-08-14T05:50:20;19.50;99.90
51637;DHT22;37713;53.254;6.460;2022-08-14T05:52:47;19.60;99.90
51637;DHT22;37713;53.254;6.460;2022-08-14T05:55:14;19.70;99.90
51637;DHT22;37713;53.254;6.460;2022-08-14T05:57:54;19.80;99.90
51637;DHT22;37713;53.254;6.460;2022-08-14T06:00:23;19.90;99.90
51637;DHT22;37713;53.254;6.460;2022-08-14T06:02:49;20.00;99.90
51637;DHT22;37713;53.254;6.460;2022-08-14T06:05:15;20.10;99.90
51637;DHT22;37713;53.254;6.460;2022-08-14T06:07:41;20.20;99.90
51637;DHT22;37713;53.254;6.460;2022-08-14T06:10:08;20.40;99.90
51637;DHT22;37713;53.254;6.460;2022-08-14T06:12:35;20.50;99.90
51637;DHT22;37713;53.254;6.460;2022-08-14T06:15:01;20.60;99.90
51637;DHT22;37713;53.254;6.460;2022-08-14T06:17:26;20.70;99.90
51637;DHT22;37713;53.254;6.460;2022-08-14T06:19:52;20.80;99.90
51637;DHT22;37713;53.254;6.460;2022-08-14T06:22:18;20.90;99.90
51637;DHT22;37713;53.254;6.460;2022-08-14T06:24:44;20.90;99.90
51637;DHT22;37713;53.254;6.460;2022-08-14T06:27:10;21.00;99.90
51637;DHT22;37713;53.254;6.460;2022-08-14T06:29:37;21.10;99.90
51637;DHT22;37713;53.254;6.460;2022-08-14T06:32:03;21.30;99.90
51637;DHT22;37713;53.254;6.460;2022-08-14T06:34:29;21.50;99.90
51637;DHT22;37713;53.254;6.460;2022-08-14T06:36:56;22.30;99.90
51637;DHT22;37713;53.254;6.460;2022-08-14T06:39:23;23.50;99.90
51637;DHT22;37713;53.254;6.460;2022-08-14T06:41:49;24.80;99.90
51637;DHT22;37713;53.254;6.460;2022-08-14T06:44:15;25.80;99.90
51637;DHT22;37713;53.254;6.460;2022-08-14T06:46:41;26.60;99.90
51637;DHT22;37713;53.254;6.460;2022-08-14T06:49:06;27.20;99.90
51637;DHT22;37713;53.254;6.460;2022-08-14T06:51:32;27.90;99.90
51637;DHT22;37713;53.254;6.460;2022-08-14T06:54:00;28.30;99.90
51637;DHT22;37713;53.254;6.460;2022-08-14T06:56:26;28.70;99.90
51637;DHT22;37713;53.254;6.460;2022-08-14T06:58:52;28.90;99.90
51637;DHT22;37713;53.254;6.460;2022-08-14T07:01:18;29.30;99.90
51637;DHT22;37713;53.254;6.460;2022-08-14T07:04:02;29.50;99.90
51637;DHT22;37713;53.254;6.460;2022-08-14T07:06:47;29.80;99.90
51637;DHT22;37713;53.254;6.460;2022-08-14T07:09:14;30.10;99.90
51637;DHT22;37713;53.254;6.460;2022-08-14T07:11:40;30.20;99.90
51637;DHT22;37713;53.254;6.460;2022-08-14T07:14:06;30.30;99.90
51637;DHT22;37713;53.254;6.460;2022-08-14T07:16:32;30.40;99.90
51637;DHT22;37713;53.254;6.460;2022-08-14T07:18:58;30.40;99.90
51637;DHT22;37713;53.254;6.460;2022-08-14T07:21:24;30.60;99.00
51637;DHT22;37713;53.254;6.460;2022-08-14T07:23:49;30.70;98.10
51637;DHT22;37713;53.254;6.460;2022-08-14T07:26:15;30.70;97.40
51637;DHT22;37713;53.254;6.460;2022-08-14T07:28:41;31.10;96.40
51637;DHT22;37713;53.254;6.460;2022-08-14T07:31:09;31.00;95.50
51637;DHT22;37713;53.254;6.460;2022-08-14T07:33:40;31.10;95.10
51637;DHT22;37713;53.254;6.460;2022-08-14T07:36:08;31.00;94.20
51637;DHT22;37713;53.254;6.460;2022-08-14T07:38:35;31.10;94.20
51637;DHT22;37713;53.254;6.460;2022-08-14T07:41:02;31.10;93.90
51637;DHT22;37713;53.254;6.460;2022-08-14T07:43:29;31.20;93.70
51637;DHT22;37713;53.254;6.460;2022-08-14T07:45:55;31.10;93.30
51637;DHT22;37713;53.254;6.460;2022-08-14T07:48:21;31.20;93.10
51637;DHT22;37713;53.254;6.460;2022-08-14T07:50:47;31.00;92.50
51637;DHT22;37713;53.254;6.460;2022-08-14T07:53:16;31.00;92.40
51637;DHT22;37713;53.254;6.460;2022-08-14T07:55:42;30.90;92.20
51637;DHT22;37713;53.254;6.460;2022-08-14T07:58:09;30.70;91.80
51637;DHT22;37713;53.254;6.460;2022-08-14T08:00:35;30.80;91.80
51637;DHT22;37713;53.254;6.460;2022-08-14T08:03:01;30.60;91.90
51637;DHT22;37713;53.254;6.460;2022-08-14T08:05:28;30.40;91.70
51637;DHT22;37713;53.254;6.460;2022-08-14T08:07:54;30.40;91.40
51637;DHT22;37713;53.254;6.460;2022-08-14T08:10:22;30.10;91.70
51637;DHT22;37713;53.254;6.460;2022-08-14T08:13:02;30.00;91.90
51637;DHT22;37713;53.254;6.460;2022-08-14T08:15:31;29.80;92.50
51637;DHT22;37713;53.254;6.460;2022-08-14T08:17:58;29.60;92.90
51637;DHT22;37713;53.254;6.460;2022-08-14T08:20:26;29.60;92.90
51637;DHT22;37713;53.254;6.460;2022-08-14T08:22:54;29.50;92.20
51637;DHT22;37713;53.254;6.460;2022-08-14T08:25:24;29.30;93.10
51637;DHT22;37713;53.254;6.460;2022-08-14T08:28:15;29.30;93.30
51637;DHT22;37713;53.254;6.460;2022-08-14T08:30:49;29.40;93.20
51637;DHT22;37713;53.254;6.460;2022-08-14T08:33:17;29.30;93.50
51637;DHT22;37713;53.254;6.460;2022-08-14T08:35:44;29.30;93.50
51637;DHT22;37713;53.254;6.460;2022-08-14T08:38:12;29.40;93.50
51637;DHT22;37713;53.254;6.460;2022-08-14T08:40:45;29.40;93.40
51637;DHT22;37713;53.254;6.460;2022-08-14T08:43:27;29.50;93.30
51637;DHT22;37713;53.254;6.460;2022-08-14T08:45:55;29.50;92.80
51637;DHT22;37713;53.254;6.460;2022-08-14T08:48:23;29.50;93.40
51637;DHT22;37713;53.254;6.460;2022-08-14T08:50:50;29.50;93.30
51637;DHT22;37713;53.254;6.460;2022-08-14T08:53:16;29.60;93.40
51637;DHT22;37713;53.254;6.460;2022-08-14T08:55:44;29.80;93.10
51637;DHT22;37713;53.254;6.460;2022-08-14T08:58:13;29.80;93.00
51637;DHT22;37713;53.254;6.460;2022-08-14T09:00:39;29.70;92.60
51637;DHT22;37713;53.254;6.460;2022-08-14T09:03:11;29.60;91.70
51637;DHT22;37713;53.254;6.460;2022-08-14T09:05:47;29.70;92.50
51637;DHT22;37713;53.254;6.460;2022-08-14T09:08:25;29.60;91.90
51637;DHT22;37713;53.254;6.460;2022-08-14T09:10:53;29.70;91.80
51637;DHT22;37713;53.254;6.460;2022-08-14T09:13:20;29.60;91.30
51637;DHT22;37713;53.254;6.460;2022-08-14T09:15:48;29.50;91.20
51637;DHT22;37713;53.254;6.460;2022-08-14T09:18:18;29.50;91.30
51637;DHT22;37713;53.254;6.460;2022-08-14T09:20:50;29.50;91.50
51637;DHT22;37713;53.254;6.460;2022-08-14T09:23:16;29.50;91.20
51637;DHT22;37713;53.254;6.460;2022-08-14T09:25:45;29.50;91.10
51637;DHT22;37713;53.254;6.460;2022-08-14T09:28:13;29.40;91.10
51637;DHT22;37713;53.254;6.460;2022-08-14T09:30:48;29.50;90.90
51637;DHT22;37713;53.254;6.460;2022-08-14T09:38:50;29.40;91.40
51637;DHT22;37713;53.254;6.460;2022-08-14T09:44:57;29.40;90.90
51637;DHT22;37713;53.254;6.460;2022-08-14T09:46:55;29.50;90.80
51637;DHT22;37713;53.254;6.460;2022-08-14T09:49:32;29.50;91.00
51637;DHT22;37713;53.254;6.460;2022-08-14T09:52:13;29.60;91.20
51637;DHT22;37713;53.254;6.460;2022-08-14T09:54:41;29.70;90.90
51637;DHT22;37713;53.254;6.460;2022-08-14T09:57:22;29.70;90.40
51637;DHT22;37713;53.254;6.460;2022-08-14T09:59:49;29.70;90.70
51637;DHT22;37713;53.254;6.460;2022-08-14T10:02:30;29.70;90.70
51637;DHT22;37713;53.254;6.460;2022-08-14T10:05:05;29.70;90.50
51637;DHT22;37713;53.254;6.460;2022-08-14T10:07:34;29.70;90.10
51637;DHT22;37713;53.254;6.460;2022-08-14T10:10:02;29.70;90.50
51637;DHT22;37713;53.254;6.460;2022-08-14T10:12:44;29.80;90.40
51637;DHT22;37713;53.254;6.460;2022-08-14T10:15:16;29.70;88.90
51637;DHT22;37713;53.254;6.460;2022-08-14T10:17:43;29.70;89.80
51637;DHT22;37713;53.254;6.460;2022-08-14T10:20:09;29.90;90.10
51637;DHT22;37713;53.254;6.460;2022-08-14T10:22:36;29.90;89.60
51637;DHT22;37713;53.254;6.460;2022-08-14T10:25:13;30.00;90.00
51637;DHT22;37713;53.254;6.460;2022-08-14T10:27:39;30.10;90.20
51637;DHT22;37713;53.254;6.460;2022-08-14T10:30:13;30.10;90.30
51637;DHT22;37713;53.254;6.460;2022-08-14T10:32:43;30.20;90.30
51637;DHT22;37713;53.254;6.460;2022-08-14T10:35:11;30.10;90.50
51637;DHT22;37713;53.254;6.460;2022-08-14T10:37:39;30.10;90.10
51637;DHT22;37713;53.254;6.460;2022-08-14T10:40:05;30.10;89.80
51637;DHT22;37713;53.254;6.460;2022-08-14T10:42:36;30.20;88.60
51637;DHT22;37713;53.254;6.460;2022-08-14T10:45:14;30.20;87.70
51637;DHT22;37713;53.254;6.460;2022-08-14T10:47:40;30.10;89.20
51637;DHT22;37713;53.254;6.460;2022-08-14T10:50:07;30.10;88.90
51637;DHT22;37713;53.254;6.460;2022-08-14T10:52:34;30.10;88.80
51637;DHT22;37713;53.254;6.460;2022-08-14T10:55:15;30.20;88.30
51637;DHT22;37713;53.254;6.460;2022-08-14T10:57:54;30.30;88.10
51637;DHT22;37713;53.254;6.460;2022-08-14T11:00:23;30.20;87.10
51637;DHT22;37713;53.254;6.460;2022-08-14T11:03:04;30.20;87.30
51637;DHT22;37713;53.254;6.460;2022-08-14T11:05:52;30.30;87.60
51637;DHT22;37713;53.254;6.460;2022-08-14T11:08:30;30.30;85.20
51637;DHT22;37713;53.254;6.460;2022-08-14T11:10:59;30.30;86.70
51637;DHT22;37713;53.254;6.460;2022-08-14T11:13:27;30.30;86.70
51637;DHT22;37713;53.254;6.460;2022-08-14T11:15:55;30.40;86.10
51637;DHT22;37713;53.254;6.460;2022-08-14T11:18:22;30.50;86.90
51637;DHT22;37713;53.254;6.460;2022-08-14T11:20:53;30.60;87.30
51637;DHT22;37713;53.254;6.460;2022-08-14T11:23:25;30.60;86.00
51637;DHT22;37713;53.254;6.460;2022-08-14T11:25:50;30.60;85.40
51637;DHT22;37713;53.254;6.460;2022-08-14T11:28:21;30.60;84.50
51637;DHT22;37713;53.254;6.460;2022-08-14T11:30:49;30.50;84.60
51637;DHT22;37713;53.254;6.460;2022-08-14T11:33:15;30.60;86.00
51637;DHT22;37713;53.254;6.460;2022-08-14T11:35:46;30.60;85.40
51637;DHT22;37713;53.254;6.460;2022-08-14T11:38:12;30.70;85.50
51637;DHT22;37713;53.254;6.460;2022-08-14T11:40:38;30.70;85.60
51637;DHT22;37713;53.254;6.460;2022-08-14T11:43:06;30.90;85.60
51637;DHT22;37713;53.254;6.460;2022-08-14T11:45:34;30.90;84.90
51637;DHT22;37713;53.254;6.460;2022-08-14T11:48:24;30.90;83.80
51637;DHT22;37713;53.254;6.460;2022-08-14T11:50:50;31.00;84.20
51637;DHT22;37713;53.254;6.460;2022-08-14T11:55:46;31.00;83.40
51637;DHT22;37713;53.254;6.460;2022-08-14T11:58:25;31.00;83.00
51637;DHT22;37713;53.254;6.460;2022-08-14T12:00:55;31.10;83.30
51637;DHT22;37713;53.254;6.460;2022-08-14T12:03:43;31.20;82.60
51637;DHT22;37713;53.254;6.460;2022-08-14T12:06:15;31.40;82.50
51637;DHT22;37713;53.254;6.460;2022-08-14T12:08:43;31.30;82.10
51637;DHT22;37713;53.254;6.460;2022-08-14T12:11:12;31.30;82.60
51637;DHT22;37713;53.254;6.460;2022-08-14T12:13:40;31.40;82.10
51637;DHT22;37713;53.254;6.460;2022-08-14T12:16:09;31.40;81.70
51637;DHT22;37713;53.254;6.460;2022-08-14T12:18:41;31.40;80.90
51637;DHT22;37713;53.254;6.460;2022-08-14T12:21:15;31.50;81.00
51637;DHT22;37713;53.254;6.460;2022-08-14T12:23:42;31.50;80.50
51637;DHT22;37713;53.254;6.460;2022-08-14T12:26:13;31.60;81.00
51637;DHT22;37713;53.254;6.460;2022-08-14T12:28:42;31.70;80.90
51637;DHT22;37713;53.254;6.460;2022-08-14T12:31:14;31.80;80.50
51637;DHT22;37713;53.254;6.460;2022-08-14T12:33:42;32.00;79.70
51637;DHT22;37713;53.254;6.460;2022-08-14T12:36:18;32.00;79.90
51637;DHT22;37713;53.254;6.460;2022-08-14T12:38:48;32.00;78.70
51637;DHT22;37713;53.254;6.460;2022-08-14T12:41:18;32.20;78.60
51637;DHT22;37713;53.254;6.460;2022-08-14T12:43:49;32.30;78.40
51637;DHT22;37713;53.254;6.460;2022-08-14T12:46:24;32.40;79.10
51637;DHT22;37713;53.254;6.460;2022-08-14T12:48:50;32.30;77.00
51637;DHT22;37713;53.254;6.460;2022-08-14T12:51:18;32.30;77.40
51637;DHT22;37713;53.254;6.460;2022-08-14T12:53:46;32.10;77.50
51637;DHT22;37713;53.254;6.460;2022-08-14T12:56:19;31.80;77.10
51637;DHT22;37713;53.254;6.460;2022-08-14T12:58:56;31.60;76.80
51637;DHT22;37713;53.254;6.460;2022-08-14T13:01:28;31.70;77.40
51637;DHT22;37713;53.254;6.460;2022-08-14T13:04:12;31.80;77.80
51637;DHT22;37713;53.254;6.460;2022-08-14T13:06:41;32.00;77.10
51637;DHT22;37713;53.254;6.460;2022-08-14T13:09:10;32.10;76.40
51637;DHT22;37713;53.254;6.460;2022-08-14T13:11:48;32.10;75.90
51637;DHT22;37713;53.254;6.460;2022-08-14T13:14:21;32.20;74.70
51637;DHT22;37713;53.254;6.460;2022-08-14T13:16:55;32.30;75.00
51637;DHT22;37713;53.254;6.460;2022-08-14T13:19:22;32.40;74.60
51637;DHT22;37713;53.254;6.460;2022-08-14T13:21:51;32.60;74.60
51637;DHT22;37713;53.254;6.460;2022-08-14T13:24:21;32.70;74.40
51637;DHT22;37713;53.254;6.460;2022-08-14T13:26:52;32.90;74.00
51637;DHT22;37713;53.254;6.460;2022-08-14T13:29:25;33.00;73.80
51637;DHT22;37713;53.254;6.460;2022-08-14T13:31:54;33.00;73.50
51637;DHT22;37713;53.254;6.460;2022-08-14T13:34:21;33.10;73.80
51637;DHT22;37713;53.254;6.460;2022-08-14T13:36:48;33.00;72.90
51637;DHT22;37713;53.254;6.460;2022-08-14T13:39:19;33.00;72.10
51637;DHT22;37713;53.254;6.460;2022-08-14T13:41:46;33.00;72.30
51637;DHT22;37713;53.254;6.460;2022-08-14T13:44:13;33.00;71.60
51637;DHT22;37713;53.254;6.460;2022-08-14T13:46:41;33.00;71.80
51637;DHT22;37713;53.254;6.460;2022-08-14T13:49:08;33.00;71.90
51637;DHT22;37713;53.254;6.460;2022-08-14T13:51:41;32.90;72.10
51637;DHT22;37713;53.254;6.460;2022-08-14T13:54:14;32.80;71.30
51637;DHT22;37713;53.254;6.460;2022-08-14T13:56:42;32.80;72.20
51637;DHT22;37713;53.254;6.460;2022-08-14T13:59:08;32.80;72.70
51637;DHT22;37713;53.254;6.460;2022-08-14T14:01:35;32.80;72.30
51637;DHT22;37713;53.254;6.460;2022-08-14T14:04:04;32.80;72.00
51637;DHT22;37713;53.254;6.460;2022-08-14T14:06:32;32.60;70.70
51637;DHT22;37713;53.254;6.460;2022-08-14T14:09:01;32.30;71.60
51637;DHT22;37713;53.254;6.460;2022-08-14T14:11:27;32.20;71.60
51637;DHT22;37713;53.254;6.460;2022-08-14T14:13:55;32.20;71.60
51637;DHT22;37713;53.254;6.460;2022-08-14T14:16:22;32.30;72.30
51637;DHT22;37713;53.254;6.460;2022-08-14T14:18:50;32.40;72.90
51637;DHT22;37713;53.254;6.460;2022-08-14T14:21:22;32.50;71.90
51637;DHT22;37713;53.254;6.460;2022-08-14T14:23:56;32.50;72.30
51637;DHT22;37713;53.254;6.460;2022-08-14T14:26:22;32.30;72.60
51637;DHT22;37713;53.254;6.460;2022-08-14T14:28:51;32.30;72.60
51637;DHT22;37713;53.254;6.460;2022-08-14T14:31:25;32.30;72.90
51637;DHT22;37713;53.254;6.460;2022-08-14T14:34:02;32.30;73.00
51637;DHT22;37713;53.254;6.460;2022-08-14T14:36:30;32.30;72.40
51637;DHT22;37713;53.254;6.460;2022-08-14T14:38:59;32.40;72.20
51637;DHT22;37713;53.254;6.460;2022-08-14T14:41:32;32.40;72.20
51637;DHT22;37713;53.254;6.460;2022-08-14T14:43:59;32.50;71.60
51637;DHT22;37713;53.254;6.460;2022-08-14T14:46:25;32.50;71.50
51637;DHT22;37713;53.254;6.460;2022-08-14T14:48:59;32.70;71.70
51637;DHT22;37713;53.254;6.460;2022-08-14T14:51:26;32.70;70.90
51637;DHT22;37713;53.254;6.460;2022-08-14T14:53:51;32.70;70.80
51637;DHT22;37713;53.254;6.460;2022-08-14T14:56:19;32.80;70.40
51637;DHT22;37713;53.254;6.460;2022-08-14T14:58:45;32.90;70.50
51637;DHT22;37713;53.254;6.460;2022-08-14T15:01:11;32.90;70.10
51637;DHT22;37713;53.254;6.460;2022-08-14T15:03:42;33.00;70.20
51637;DHT22;37713;53.254;6.460;2022-08-14T15:06:11;32.90;70.10
51637;DHT22;37713;53.254;6.460;2022-08-14T15:08:37;33.00;70.30
51637;DHT22;37713;53.254;6.460;2022-08-14T15:11:04;32.90;69.90
51637;DHT22;37713;53.254;6.460;2022-08-14T15:13:29;32.90;69.60
51637;DHT22;37713;53.254;6.460;2022-08-14T15:15:55;32.90;70.20
51637;DHT22;37713;53.254;6.460;2022-08-14T15:18:22;32.90;70.20
51637;DHT22;37713;53.254;6.460;2022-08-14T15:20:51;32.90;69.70
51637;DHT22;37713;53.254;6.460;2022-08-14T15:23:22;32.90;69.70
51637;DHT22;37713;53.254;6.460;2022-08-14T15:25:48;32.90;69.40
51637;DHT22;37713;53.254;6.460;2022-08-14T15:28:14;32.90;69.80
51637;DHT22;37713;53.254;6.460;2022-08-14T15:30:42;32.80;69.70
51637;DHT22;37713;53.254;6.460;2022-08-14T15:33:09;32.50;69.90
51637;DHT22;37713;53.254;6.460;2022-08-14T15:35:35;32.30;69.90
51637;DHT22;37713;53.254;6.460;2022-08-14T15:38:02;32.30;69.60
51637;DHT22;37713;53.254;6.460;2022-08-14T15:40:38;32.40;70.20
51637;DHT22;37713;53.254;6.460;2022-08-14T15:43:07;32.50;70.50
51637;DHT22;37713;53.254;6.460;2022-08-14T15:45:37;32.50;69.70
51637;DHT22;37713;53.254;6.460;2022-08-14T15:48:07;32.60;69.70
51637;DHT22;37713;53.254;6.460;2022-08-14T15:50:33;32.70;69.60
51637;DHT22;37713;53.254;6.460;2022-08-14T15:52:59;32.80;69.90